createdAt,value
2019-05-11T00:00:42.894Z,87.40
2019-05-11T00:03:13.531Z,87.30
2019-05-11T00:05:44.199Z,87.50
2019-05-11T00:08:14.983Z,87.30
2019-05-11T00:10:51.455Z,87.10
2019-05-11T00:13:21.970Z,87.20
2019-05-11T00:15:52.609Z,86.60
2019-05-11T00:18:23.147Z,85.60
2019-05-11T00:20:53.993Z,86.00
2019-05-11T00:23:24.556Z,85.60
2019-05-11T00:25:55.328Z,86.30
2019-05-11T00:28:25.975Z,86.00
2019-05-11T00:30:56.764Z,85.90
2019-05-11T00:33:27.304Z,84.70
2019-05-11T00:35:57.944Z,84.60
2019-05-11T00:38:28.487Z,84.90
2019-05-11T00:40:59.225Z,85.50
2019-05-11T00:43:29.783Z,84.70
2019-05-11T00:46:01.070Z,84.10
2019-05-11T00:48:31.703Z,84.40
2019-05-11T00:51:02.490Z,84.30
2019-05-11T00:53:33.333Z,84.20
2019-05-11T00:56:04.249Z,84.50
2019-05-11T00:58:35.125Z,84.20
2019-05-11T01:01:05.956Z,84.00
2019-05-11T01:03:36.623Z,84.20
2019-05-11T01:06:07.368Z,84.30
2019-05-11T01:08:38.007Z,83.80
2019-05-11T01:11:08.682Z,83.80
2019-05-11T01:13:39.562Z,84.20
2019-05-11T01:16:10.259Z,84.40
2019-05-11T01:18:40.889Z,84.60
2019-05-11T01:21:11.579Z,84.60
2019-05-11T01:23:42.239Z,84.30
2019-05-11T01:26:13.009Z,84.60
2019-05-11T01:28:47.167Z,84.40
2019-05-11T01:31:17.959Z,83.80
2019-05-11T01:33:48.563Z,84.00
2019-05-11T01:36:19.530Z,83.80
2019-05-11T01:39:02.044Z,84.10
2019-05-11T01:41:33.780Z,83.60
2019-05-11T01:44:04.339Z,83.80
2019-05-11T01:46:35.052Z,83.80
2019-05-11T01:49:07.734Z,83.60
2019-05-11T01:51:38.384Z,83.30
2019-05-11T01:54:10.095Z,82.40
2019-05-11T01:56:40.742Z,83.00
2019-05-11T01:59:13.549Z,83.70
2019-05-11T02:01:44.247Z,84.50
2019-05-11T02:04:15.868Z,85.00
2019-05-11T02:06:46.630Z,86.10
2019-05-11T02:09:19.360Z,87.30
2019-05-11T02:11:50.096Z,87.60
2019-05-11T02:14:20.674Z,88.00
2019-05-11T02:16:51.342Z,88.90
2019-05-11T02:19:22.904Z,90.00
2019-05-11T02:21:53.660Z,90.10
2019-05-11T02:24:24.578Z,90.00
2019-05-11T02:26:55.258Z,90.10
2019-05-11T02:29:29.563Z,90.40
2019-05-11T02:32:00.364Z,90.40
2019-05-11T02:34:30.909Z,90.70
2019-05-11T02:37:01.643Z,90.70
2019-05-11T02:39:33.280Z,90.60
2019-05-11T02:42:04.030Z,90.50
2019-05-11T02:44:34.599Z,90.50
2019-05-11T02:47:05.373Z,90.60
2019-05-11T02:49:39.286Z,90.40
2019-05-11T02:52:10.908Z,90.50
2019-05-11T02:54:43.260Z,90.60
2019-05-11T02:57:14.017Z,90.90
2019-05-11T02:59:45.711Z,90.70
2019-05-11T03:02:17.475Z,90.60
2019-05-11T03:04:47.989Z,90.50
2019-05-11T03:07:18.642Z,91.00
2019-05-11T03:09:55.044Z,90.60
2019-05-11T03:12:25.684Z,90.40
2019-05-11T03:14:59.934Z,90.40
2019-05-11T03:17:32.162Z,90.50
2019-05-11T03:20:03.753Z,90.70
2019-05-11T03:22:34.396Z,90.50
2019-05-11T03:25:06.206Z,90.50
2019-05-11T03:27:37.030Z,90.30
2019-05-11T03:30:10.365Z,90.30
2019-05-11T03:32:41.175Z,90.50
2019-05-11T03:35:12.422Z,90.50
2019-05-11T03:37:43.230Z,90.30
2019-05-11T03:40:16.284Z,90.30
2019-05-11T03:42:48.212Z,90.00
2019-05-11T03:45:18.773Z,90.20
2019-05-11T03:47:49.610Z,90.10
2019-05-11T03:50:21.267Z,90.30
2019-05-11T03:52:51.904Z,90.40
2019-05-11T03:55:22.544Z,90.50
2019-05-11T03:57:53.200Z,90.30
2019-05-11T04:00:26.508Z,90.00
2019-05-11T04:02:57.274Z,89.80
2019-05-11T04:08:29.978Z,89.80
2019-05-11T04:11:01.229Z,89.90
2019-05-11T04:13:31.955Z,90.00
2019-05-11T04:16:02.639Z,90.20
2019-05-11T04:18:33.305Z,90.40
2019-05-11T04:21:03.983Z,90.50
2019-05-11T04:23:35.763Z,90.40
2019-05-11T04:26:06.500Z,89.40
2019-05-11T04:28:37.264Z,88.50
2019-05-11T04:31:07.896Z,88.60
2019-05-11T04:33:38.721Z,89.00
2019-05-11T04:36:09.254Z,89.10
2019-05-11T04:38:40.000Z,89.50
2019-05-11T04:41:10.627Z,90.00
2019-05-11T04:43:41.263Z,90.10
2019-05-11T04:46:11.816Z,90.30
2019-05-11T04:48:43.723Z,90.30
2019-05-11T04:51:15.463Z,90.40
2019-05-11T04:53:46.233Z,90.30
2019-05-11T04:56:16.875Z,90.20
2019-05-11T04:58:53.592Z,90.30
2019-05-11T05:01:24.171Z,90.30
2019-05-11T05:03:57.767Z,90.20
2019-05-11T05:06:27.217Z,90.20
2019-05-11T05:11:57.650Z,90.10
2019-05-11T05:14:28.440Z,90.00
2019-05-11T05:16:59.190Z,89.70
2019-05-11T05:19:30.947Z,89.60
2019-05-11T05:22:03.190Z,88.90
2019-05-11T05:24:35.011Z,88.80
2019-05-11T05:27:05.860Z,88.50
2019-05-11T05:29:42.723Z,89.00
2019-05-11T05:32:13.474Z,88.90
2019-05-11T05:34:46.950Z,88.00
2019-05-11T05:37:17.602Z,88.10
2019-05-11T05:39:48.874Z,88.80
2019-05-11T05:42:19.506Z,88.20
2019-05-11T05:44:51.152Z,88.60
2019-05-11T05:47:21.843Z,88.20
2019-05-11T05:49:58.287Z,88.00
2019-05-11T05:52:29.049Z,86.70
2019-05-11T05:54:59.623Z,86.80
2019-05-11T05:57:30.273Z,83.60
2019-05-11T06:00:27.464Z,81.20
2019-05-11T06:02:58.250Z,79.10
2019-05-11T06:05:29.005Z,78.80
2019-05-11T06:07:59.781Z,80.20
2019-05-11T06:10:30.514Z,79.90
2019-05-11T06:13:01.295Z,79.20
2019-05-11T06:15:33.769Z,79.80
2019-05-11T06:18:04.746Z,80.60
2019-05-11T06:20:36.441Z,80.60
2019-05-11T06:23:08.546Z,79.80
2019-05-11T06:25:39.274Z,80.70
2019-05-11T06:28:09.966Z,81.10
2019-05-11T06:30:40.800Z,81.70
2019-05-11T06:33:11.434Z,82.20
2019-05-11T06:35:42.155Z,80.90
2019-05-11T06:38:12.698Z,81.00
2019-05-11T06:40:45.561Z,81.20
2019-05-11T06:43:16.171Z,81.90
2019-05-11T06:45:46.830Z,81.60
2019-05-11T06:48:17.456Z,81.90
2019-05-11T06:50:48.083Z,82.40
2019-05-11T06:53:20.114Z,82.50
2019-05-11T06:55:50.742Z,83.30
2019-05-11T06:58:21.286Z,83.70
2019-05-11T07:00:53.544Z,84.40
2019-05-11T07:03:24.165Z,85.50
2019-05-11T07:05:54.912Z,86.00
2019-05-11T07:08:25.538Z,86.30
2019-05-11T07:10:56.206Z,86.10
2019-05-11T07:13:26.877Z,86.60
2019-05-11T07:15:57.531Z,86.40
2019-05-11T07:18:28.175Z,86.60
2019-05-11T07:20:58.865Z,86.10
2019-05-11T07:23:29.611Z,86.60
2019-05-11T07:26:01.304Z,86.90
2019-05-11T07:28:32.037Z,85.50
2019-05-11T07:31:02.687Z,84.50
2019-05-11T07:33:33.429Z,84.90
2019-05-11T07:36:04.346Z,85.70
2019-05-11T07:38:34.869Z,86.60
2019-05-11T07:41:05.626Z,86.80
2019-05-11T07:43:38.150Z,85.10
2019-05-11T07:46:10.095Z,84.40
2019-05-11T07:48:40.626Z,83.70
2019-05-11T07:51:11.261Z,82.90
2019-05-11T07:53:41.773Z,80.90
2019-05-11T07:56:12.444Z,80.80
2019-05-11T07:58:48.084Z,79.20
2019-05-11T08:01:19.036Z,80.30
2019-05-11T08:03:50.925Z,79.60
2019-05-11T08:06:22.913Z,81.20
2019-05-11T08:08:54.774Z,82.10
2019-05-11T08:11:28.914Z,83.20
2019-05-11T08:13:58.438Z,82.20
2019-05-11T08:16:29.481Z,83.30
2019-05-11T08:19:01.341Z,84.20
2019-05-11T08:21:32.012Z,84.60
2019-05-11T08:24:02.681Z,84.40
2019-05-11T08:26:33.384Z,84.60
2019-05-11T08:29:05.291Z,84.10
2019-05-11T08:31:38.269Z,84.20
2019-05-11T08:34:08.967Z,83.70
2019-05-11T08:36:39.812Z,83.60
2019-05-11T08:39:11.526Z,82.70
2019-05-11T08:41:42.174Z,83.40
2019-05-11T08:44:12.816Z,82.20
2019-05-11T08:46:43.503Z,81.80
2019-05-11T08:49:16.627Z,82.80
2019-05-11T08:51:47.927Z,81.60
2019-05-11T08:54:18.562Z,81.70
2019-05-11T08:56:49.209Z,81.40
2019-05-11T08:59:20.826Z,80.40
2019-05-11T09:01:51.460Z,80.20
2019-05-11T09:04:22.103Z,78.10
2019-05-11T09:06:52.955Z,77.90
2019-05-11T09:09:24.721Z,78.20
2019-05-11T09:11:55.468Z,75.90
2019-05-11T09:14:28.320Z,75.90
2019-05-11T09:17:00.467Z,75.90
2019-05-11T09:19:32.087Z,76.00
2019-05-11T09:22:03.310Z,77.10
2019-05-11T09:24:34.069Z,76.10
2019-05-11T09:27:04.846Z,77.00
2019-05-11T09:29:38.650Z,76.10
2019-05-11T09:32:10.662Z,77.30
2019-05-11T09:34:41.192Z,77.50
2019-05-11T09:37:11.878Z,78.90
2019-05-11T09:39:42.741Z,79.60
2019-05-11T09:42:13.513Z,79.50
2019-05-11T09:44:44.172Z,79.40
2019-05-11T09:47:14.924Z,79.70
2019-05-11T09:49:50.704Z,79.20
2019-05-11T09:52:19.873Z,78.60
2019-05-11T09:54:50.418Z,78.60
2019-05-11T09:57:21.065Z,78.90
2019-05-11T09:59:58.230Z,77.10
2019-05-11T10:02:29.161Z,76.80
2019-05-11T10:04:59.723Z,77.60
2019-05-11T10:07:32.460Z,76.50
2019-05-11T10:10:08.929Z,75.20
2019-05-11T10:12:38.929Z,73.40
2019-05-11T10:15:11.276Z,74.50
2019-05-11T10:17:42.047Z,72.90
2019-05-11T10:20:29.560Z,72.90
2019-05-11T10:23:00.298Z,72.10
2019-05-11T10:25:30.921Z,72.30
2019-05-11T10:28:03.175Z,72.30
2019-05-11T10:30:44.746Z,71.90
2019-05-11T10:33:15.505Z,73.00
2019-05-11T10:35:48.332Z,73.50
2019-05-11T10:38:18.662Z,72.10
2019-05-11T10:40:49.193Z,71.40
2019-05-11T10:43:19.933Z,70.20
2019-05-11T10:45:50.465Z,70.00
2019-05-11T10:48:21.165Z,69.10
2019-05-11T10:50:51.809Z,67.70
2019-05-11T10:53:23.679Z,68.50
2019-05-11T10:55:54.327Z,68.60
2019-05-11T10:58:25.173Z,70.20
2019-05-11T11:01:19.000Z,68.80
2019-05-11T11:03:49.640Z,68.40
2019-05-11T11:06:20.280Z,69.30
2019-05-11T11:08:52.167Z,68.70
2019-05-11T11:11:22.784Z,68.60
2019-05-11T11:13:53.422Z,69.40
2019-05-11T11:16:35.695Z,71.10
2019-05-11T11:19:03.676Z,70.20
2019-05-11T11:21:34.331Z,69.70
2019-05-11T11:24:07.507Z,70.00
2019-05-11T11:26:38.156Z,70.40
2019-05-11T11:29:12.142Z,70.30
2019-05-11T11:31:42.691Z,69.20
2019-05-11T11:34:13.432Z,70.40
2019-05-11T11:36:44.071Z,71.00
2019-05-11T11:39:15.897Z,71.80
2019-05-11T11:41:48.485Z,71.50
2019-05-11T11:44:21.024Z,70.90
2019-05-11T11:46:55.205Z,71.60
2019-05-11T11:49:41.901Z,71.20
2019-05-11T12:09:53.569Z,70.70
2019-05-11T12:12:24.643Z,71.10
2019-05-11T12:14:55.435Z,71.30
2019-05-11T12:17:28.384Z,70.10
2019-05-11T12:19:59.680Z,71.50
2019-05-11T12:22:30.211Z,70.40
2019-05-11T12:25:01.265Z,69.00
2019-05-11T12:27:32.038Z,69.60
2019-05-11T12:30:02.806Z,69.10
2019-05-11T12:32:35.013Z,67.80
2019-05-11T12:35:08.662Z,68.70
2019-05-11T12:37:39.401Z,67.80
2019-05-11T12:40:11.526Z,68.40
2019-05-11T12:42:42.215Z,68.20
2019-05-11T12:45:13.159Z,66.50
2019-05-11T12:47:43.776Z,66.20
2019-05-11T12:50:15.403Z,67.10
2019-05-11T12:52:47.751Z,66.90
2019-05-11T12:55:18.654Z,66.30
2019-05-11T12:57:49.387Z,66.50
2019-05-11T13:00:20.937Z,65.30
2019-05-11T13:02:51.642Z,64.90
2019-05-11T13:05:22.263Z,66.90
2019-05-11T13:07:53.193Z,67.00
2019-05-11T13:10:23.906Z,65.10
2019-05-11T13:12:54.711Z,66.40
2019-05-11T13:15:25.370Z,65.60
2019-05-11T13:17:57.962Z,65.50
2019-05-11T13:20:29.389Z,66.30
2019-05-11T13:23:00.097Z,65.10
2019-05-11T13:25:30.648Z,65.80
2019-05-11T13:28:01.392Z,65.60
2019-05-11T13:30:32.086Z,64.50
2019-05-11T13:33:02.721Z,64.30
2019-05-11T13:35:33.294Z,63.20
2019-05-11T13:38:03.918Z,64.80
2019-05-11T13:40:34.599Z,65.20
2019-05-11T13:43:05.301Z,65.60
2019-05-11T13:45:35.843Z,67.10
2019-05-11T13:48:08.435Z,67.30
2019-05-11T13:50:38.858Z,66.80
2019-05-11T13:53:09.605Z,66.60
2019-05-11T13:55:40.155Z,66.60
2019-05-11T13:58:10.811Z,65.20
2019-05-11T14:00:41.384Z,66.70
2019-05-11T14:03:12.140Z,67.10
2019-05-11T14:05:42.671Z,66.30
2019-05-11T14:08:13.522Z,66.40
2019-05-11T14:10:44.187Z,66.90
2019-05-11T14:13:14.953Z,67.60
2019-05-11T14:15:47.945Z,68.10
2019-05-11T14:18:18.434Z,67.80
2019-05-11T14:20:49.343Z,67.10
2019-05-11T14:23:20.110Z,67.90
2019-05-11T14:25:50.766Z,66.00
2019-05-11T14:28:21.535Z,66.10
2019-05-11T14:30:52.291Z,65.50
2019-05-11T14:33:23.031Z,65.70
2019-05-11T14:35:53.815Z,65.90
2019-05-11T14:38:24.668Z,66.80
2019-05-11T14:40:55.333Z,67.10
2019-05-11T14:43:27.708Z,64.60
2019-05-11T14:45:58.451Z,64.10
2019-05-11T14:48:30.198Z,63.80
2019-05-11T14:51:01.048Z,63.20
2019-05-11T14:53:31.683Z,62.60
2019-05-11T14:56:02.212Z,61.60
2019-05-11T14:58:32.875Z,61.70
2019-05-11T15:01:03.406Z,63.80
2019-05-11T15:03:34.257Z,63.60
2019-05-11T15:06:04.963Z,62.30
2019-05-11T15:08:35.627Z,61.30
2019-05-11T15:11:08.112Z,61.20
2019-05-11T15:13:38.496Z,61.50
2019-05-11T15:16:09.117Z,62.10
2019-05-11T15:18:42.207Z,62.20
2019-05-11T15:21:11.916Z,62.80
2019-05-11T15:23:42.561Z,62.80
2019-05-11T15:26:13.085Z,63.50
2019-05-11T15:28:43.841Z,63.50
2019-05-11T15:31:14.358Z,63.50
2019-05-11T15:33:45.221Z,63.00
2019-05-11T15:36:15.743Z,63.80
2019-05-11T15:38:52.294Z,63.70
2019-05-11T15:41:22.829Z,64.50
2019-05-11T15:43:53.615Z,64.70
2019-05-11T15:46:24.147Z,64.70
2019-05-11T15:49:00.468Z,64.90
2019-05-11T15:51:28.951Z,65.10
2019-05-11T15:53:59.332Z,65.10
2019-05-11T15:56:29.857Z,65.30
2019-05-11T15:59:00.576Z,65.00
2019-05-11T16:01:31.191Z,65.50
2019-05-11T16:04:01.952Z,65.50
2019-05-11T16:06:32.575Z,65.50
2019-05-11T16:09:04.942Z,65.90
2019-05-11T16:11:35.566Z,66.40
2019-05-11T16:14:08.753Z,66.70
2019-05-11T16:16:39.198Z,67.10
2019-05-11T16:19:15.137Z,67.40
2019-05-11T16:21:45.756Z,68.30
2019-05-11T16:24:16.419Z,68.60
2019-05-11T16:26:47.520Z,69.00
2019-05-11T16:29:19.566Z,69.30
2019-05-11T16:31:50.333Z,69.50
2019-05-11T16:34:22.226Z,68.80
2019-05-11T16:36:53.028Z,69.60
2019-05-11T16:39:24.996Z,70.10
2019-05-11T16:41:57.869Z,70.30
2019-05-11T16:44:28.114Z,70.60
2019-05-11T16:46:58.792Z,70.70
2019-05-11T16:49:32.482Z,71.00
2019-05-11T16:52:10.143Z,71.40
2019-05-11T16:54:40.479Z,71.70
2019-05-11T16:57:11.013Z,72.60
2019-05-11T16:59:41.866Z,71.50
2019-05-11T17:02:12.522Z,71.40
2019-05-11T17:04:43.287Z,71.40
2019-05-11T17:07:13.852Z,71.30
2019-05-11T17:09:44.646Z,71.50
2019-05-11T17:12:24.503Z,71.90
2019-05-11T17:14:58.605Z,72.00
2019-05-11T17:17:29.417Z,72.40
2019-05-11T17:20:09.972Z,72.80
2019-05-11T17:22:53.945Z,73.10
2019-05-11T17:25:37.797Z,73.30
2019-05-11T17:28:10.023Z,73.00
2019-05-11T17:30:40.113Z,73.40
2019-05-11T17:33:10.676Z,74.40
2019-05-11T17:35:41.510Z,70.40
2019-05-11T17:38:12.559Z,65.10
2019-05-11T17:40:43.460Z,62.90
2019-05-11T17:43:14.027Z,64.60
2019-05-11T17:45:48.021Z,67.10
2019-05-11T17:48:18.439Z,70.10
2019-05-11T17:50:49.299Z,73.60
2019-05-11T17:53:19.931Z,76.90
2019-05-11T17:55:50.598Z,79.20
2019-05-11T17:58:23.860Z,80.50
2019-05-11T18:00:54.690Z,83.00
2019-05-11T18:03:27.675Z,84.30
2019-05-11T18:05:58.954Z,84.80
2019-05-11T18:08:30.849Z,85.60
2019-05-11T18:11:02.160Z,85.80
2019-05-11T18:13:32.703Z,88.00
2019-05-11T18:16:03.494Z,86.10
2019-05-11T18:18:34.102Z,88.10
2019-05-11T18:21:04.824Z,88.40
2019-05-11T18:23:35.376Z,90.00
2019-05-11T18:26:06.055Z,90.10
2019-05-11T18:28:37.930Z,90.00
2019-05-11T18:31:08.937Z,89.30
2019-05-11T18:33:39.465Z,89.90
2019-05-11T18:36:10.212Z,89.60
2019-05-11T18:38:42.312Z,89.70
2019-05-11T18:41:12.947Z,90.00
2019-05-11T18:43:43.454Z,90.20
2019-05-11T18:46:14.251Z,90.10
2019-05-11T18:48:45.870Z,90.30
2019-05-11T18:51:16.614Z,90.40
2019-05-11T18:53:48.242Z,90.40
2019-05-11T18:56:19.091Z,90.60
2019-05-11T18:58:51.728Z,90.70
2019-05-11T19:01:22.684Z,91.00
2019-05-11T19:03:53.319Z,90.90
2019-05-11T19:06:24.085Z,91.00
2019-05-11T19:08:58.035Z,90.80
2019-05-11T19:11:28.951Z,91.10
2019-05-11T19:13:59.836Z,90.90
2019-05-11T19:16:30.647Z,91.00
2019-05-11T19:19:02.418Z,91.00
2019-05-11T19:21:33.097Z,91.00
2019-05-11T19:24:06.048Z,91.00
2019-05-11T19:26:35.895Z,91.10
2019-05-11T19:29:08.999Z,91.20
2019-05-11T19:31:39.976Z,91.10
2019-05-11T19:34:10.511Z,91.50
2019-05-11T19:36:41.502Z,91.50
2019-05-11T19:39:14.802Z,91.70
2019-05-11T19:41:45.437Z,91.60
2019-05-11T19:44:18.524Z,91.40
2019-05-11T19:46:48.513Z,91.30
2019-05-11T19:49:19.149Z,91.20
2019-05-11T19:51:49.864Z,91.60
2019-05-11T19:54:20.384Z,91.50
2019-05-11T19:56:52.426Z,91.80
2019-05-11T19:59:24.170Z,91.70
2019-05-11T20:01:57.919Z,91.80
2019-05-11T20:04:28.346Z,92.00
2019-05-11T20:06:59.292Z,91.70
2019-05-11T20:09:32.112Z,91.70
2019-05-11T20:12:02.751Z,91.70
2019-05-11T20:14:34.388Z,91.30
2019-05-11T20:17:05.186Z,91.70
2019-05-11T20:19:42.567Z,91.80
2019-05-11T20:22:13.245Z,91.50
2019-05-11T20:24:43.819Z,91.70
2019-05-11T20:27:14.456Z,91.40
2019-05-11T20:29:47.773Z,91.30
2019-05-11T20:32:19.852Z,91.70
2019-05-11T20:34:50.618Z,91.40
2019-05-11T20:37:21.330Z,91.20
2019-05-11T20:39:54.194Z,91.20
2019-05-11T20:42:24.818Z,91.30
2019-05-11T20:44:55.534Z,91.20
2019-05-11T20:47:28.622Z,91.20
2019-05-11T20:50:00.492Z,91.40
2019-05-11T20:52:31.261Z,90.90
2019-05-11T20:55:01.888Z,91.40
2019-05-11T20:57:32.775Z,91.30
2019-05-11T21:00:08.651Z,91.10
2019-05-11T21:02:39.698Z,90.70
2019-05-11T21:05:10.454Z,91.00
2019-05-11T21:07:41.211Z,91.20
2019-05-11T21:10:13.757Z,91.40
2019-05-11T21:12:44.519Z,91.00
2019-05-11T21:15:17.586Z,91.20
2019-05-11T21:17:50.705Z,91.30
2019-05-11T21:20:21.823Z,91.40
2019-05-11T21:22:52.469Z,91.40
2019-05-11T21:25:23.176Z,91.40
2019-05-11T21:27:53.818Z,91.10
2019-05-11T21:30:26.497Z,91.20
2019-05-11T21:32:58.446Z,91.40
2019-05-11T21:35:29.286Z,91.30
2019-05-11T21:38:00.038Z,91.60
2019-05-11T21:40:31.794Z,91.50
2019-05-11T21:43:03.617Z,91.30
2019-05-11T21:45:37.474Z,91.50
2019-05-11T21:48:06.521Z,91.40
2019-05-11T21:50:38.905Z,91.40
2019-05-11T21:53:10.571Z,91.40
2019-05-11T21:55:41.341Z,91.40
2019-05-11T21:58:12.025Z,91.40
2019-05-11T22:00:47.801Z,91.20
2019-05-11T22:03:19.948Z,91.20
2019-05-11T22:05:50.488Z,91.00
2019-05-11T22:08:21.295Z,91.00
2019-05-11T22:10:51.959Z,91.50
2019-05-11T22:13:22.584Z,91.80
2019-05-11T22:15:54.160Z,92.10
2019-05-11T22:18:30.889Z,92.10
2019-05-11T22:20:57.927Z,92.10
2019-05-11T22:23:28.816Z,92.40
2019-05-11T22:26:00.872Z,91.80
2019-05-11T22:28:50.761Z,91.70
2019-05-11T22:31:21.374Z,91.30
2019-05-11T22:33:52.004Z,91.30
2019-05-11T22:36:22.450Z,91.30
2019-05-11T22:38:58.844Z,91.80
2019-05-11T22:41:30.034Z,91.50
2019-05-11T22:44:00.794Z,92.60
2019-05-11T22:46:31.724Z,93.30
2019-05-11T22:49:03.887Z,93.80
2019-05-11T22:51:34.624Z,94.20
2019-05-11T22:54:08.046Z,94.70
2019-05-11T22:56:39.705Z,95.30
2019-05-11T22:59:11.574Z,95.30
2019-05-11T23:01:42.087Z,95.20
2019-05-11T23:04:12.823Z,94.50
2019-05-11T23:06:43.442Z,94.10
2019-05-11T23:09:15.328Z,94.00
2019-05-11T23:11:48.133Z,94.10
2019-05-11T23:14:19.901Z,94.20
2019-05-11T23:16:51.683Z,94.00
2019-05-11T23:19:24.493Z,93.70
2019-05-11T23:21:55.031Z,93.60
2019-05-11T23:24:25.754Z,93.90
2019-05-11T23:26:56.257Z,94.10
2019-05-11T23:29:29.974Z,94.10
2019-05-11T23:32:00.502Z,94.30
2019-05-11T23:34:31.114Z,94.50
2019-05-11T23:37:03.183Z,93.80
2019-05-11T23:39:35.918Z,93.60
2019-05-11T23:42:08.080Z,93.90
2019-05-11T23:44:38.667Z,93.70
2019-05-11T23:47:09.186Z,93.70
2019-05-11T23:49:42.022Z,93.70
2019-05-11T23:52:11.992Z,94.20
2019-05-11T23:54:42.723Z,93.70
2019-05-11T23:57:13.312Z,94.30
2019-05-11T23:59:47.775Z,94.40
